M I D A S
Marine Information and Data Acquisition System
Tripno 2297 of the Zeeleeuw from 2012-04-26 08:26:08 to 2012-04-26 14:07:33
Back to CruiseResearch ActivitiesStationsMapUnderway DataData graphs

EquipmentUnitsComments
TimeDGPSUTC
LatitudeDGPSDM.mWGS84
LongitudeDGPSDM.mWGS84
SpeedMeteo Stationm/sRelative wind speed
DirectionMeteo StationdegRelative wind direction
TemperatureMeteo Stationdeg CelciusAir temperature
PressureMeteo StationPaAtmospheric pressure
HumidityMeteo Station%Relative humidity
Missing or incorrect values are displayed as -999
Metereological data collected by the RV Zeeleeuw from 2012-04-26 07:44:46 to 2012-04-26 14:19:11
Time Latitude Longitude Speed Direction Temperature Pressure Humidity
2012-04-26 07:45 51°13.639 2°56.017 5.4 353 11.4 99680 48
2012-04-26 07:46 51°13.638 2°56.017 5.1 358 11.4 99680 47
2012-04-26 07:47 51°13.638 2°56.017 3.8 7 11.4 99680 47
2012-04-26 07:48 51°13.638 2°56.018 6.6 10 11.4 99680 47
2012-04-26 07:49 51°13.638 2°56.018 6.2 15 11.4 99680 47
2012-04-26 07:50 51°13.637 2°56.018 3.3 -999 11.4 99680 49
2012-04-26 07:51 51°13.638 2°56.018 8.7 354 11.4 99690 49
2012-04-26 07:52 51°13.638 2°56.019 8.9 353 11.4 99680 47
2012-04-26 07:53 51°13.639 2°56.02 7.7 357 11.4 99680 48
2012-04-26 07:54 51°13.638 2°56.019 6.6 282 11.4 99690 46
2012-04-26 07:55 51°13.636 2°56.018 6 7 11.4 99680 47
2012-04-26 07:56 51°13.636 2°56.019 7.6 352 11.4 99700 47
2012-04-26 07:57 51°13.636 2°56.019 4.8 279 11.4 99690 48
2012-04-26 07:58 51°13.635 2°56.018 6 359 11.4 99700 48
2012-04-26 07:59 51°13.637 2°56.018 7.2 2 11.4 99700 46
2012-04-26 08:00 51°13.637 2°56.018 2.6 5 11.4 99700 46
2012-04-26 08:01 51°13.638 2°56.018 5.3 358 11.4 99700 48
2012-04-26 08:02 51°13.64 2°56.019 7 5 11.4 99710 47
2012-04-26 08:03 51°13.639 2°56.019 6.6 283 11.5 99710 47
2012-04-26 08:04 51°13.638 2°56.018 4.8 357 11.4 99710 46
2012-04-26 08:05 51°13.635 2°56.017 5.5 359 11.4 99710 47
2012-04-26 08:06 51°13.635 2°56.017 5.7 4 11.4 99710 48
2012-04-26 08:07 51°13.636 2°56.017 4.4 280 11.4 99710 47
2012-04-26 08:08 51°13.636 2°56.017 7.6 12 11.5 99720 47
2012-04-26 08:09 51°13.636 2°56.017 5.8 3 11.5 99720 48
2012-04-26 08:10 51°13.636 2°56.017 7.1 358 11.5 99720 48
2012-04-26 08:11 51°13.636 2°56.018 5.5 7 11.5 99720 47
2012-04-26 08:12 51°13.636 2°56.017 0.1 350 11.5 99720 47
2012-04-26 08:13 51°13.636 2°56.017 6.4 14 11.6 99720 46
2012-04-26 08:14 51°13.636 2°56.016 8.7 3 11.6 99720 46
2012-04-26 08:15 51°13.636 2°56.016 -999 -999 -999 -999 -999
2012-04-26 08:16 51°13.636 2°56.017 4.8 278 11.6 99730 47
2012-04-26 08:17 51°13.637 2°56.016 6.7 359 11.6 99720 46
2012-04-26 08:18 51°13.637 2°56.016 6.6 283 11.6 99730 45
2012-04-26 08:19 51°13.637 2°56.017 10.8 1 11.6 99730 48
2012-04-26 08:20 51°13.636 2°56.017 4.8 5 11.7 99740 46
2012-04-26 08:21 51°13.636 2°56.018 4.8 359 11.7 99730 48
2012-04-26 08:22 51°13.636 2°56.018 6 349 11.7 99730 46
2012-04-26 08:23 51°13.634 2°56.019 6 350 11.7 99740 47
2012-04-26 08:24 51°13.631 2°56.021 4.2 357 11.7 99730 47
2012-04-26 08:25 51°13.633 2°56.021 9 13 11.7 99720 47
2012-04-26 08:26 51°13.634 2°56.02 5.5 12 11.7 99740 47
2012-04-26 08:27 51°13.635 2°56.02 6.3 3 11.7 99740 46
2012-04-26 08:28 51°13.635 2°56.02 6.4 359 11.7 99740 46
2012-04-26 08:29 51°13.632 2°56.019 7.8 11 11.7 99740 47
2012-04-26 08:30 51°13.632 2°56.018 5.1 358 11.7 99750 47
2012-04-26 08:31 51°13.648 2°55.96 8.4 8 11.7 99740 47
2012-04-26 08:32 51°13.658 2°55.928 3.9 9 11.7 99750 46
2012-04-26 08:33 51°13.667 2°55.907 4.1 18 11.7 99750 46
2012-04-26 08:34 51°13.693 2°55.819 4.6 23 11.7 99760 46
2012-04-26 08:35 51°13.713 2°55.736 5.9 19 11.7 99750 46
2012-04-26 08:36 51°13.725 2°55.715 2.1 76 11.7 99760 46
2012-04-26 08:37 51°13.718 2°55.711 8.2 78 11.8 99770 47
2012-04-26 08:38 51°13.756 2°55.681 4.4 16 11.9 99770 47
2012-04-26 08:39 51°13.884 2°55.594 1.8 285 11.9 99770 47
2012-04-26 08:40 51°14.028 2°55.492 5.3 82 11.9 99760 46
2012-04-26 08:41 51°14.176 2°55.373 2.9 84 11.9 99770 45
2012-04-26 08:42 51°14.333 2°55.231 5.5 284 11.9 99770 44
2012-04-26 08:43 51°14.499 2°55.08 6.8 285 12 99760 46
2012-04-26 08:44 51°14.645 2°54.895 11.6 283 12 99770 45
2012-04-26 08:45 51°14.705 2°54.607 8.2 281 11.9 99740 46
2012-04-26 08:46 51°14.602 2°54.33 7.6 281 12 99720 47
2012-04-26 08:47 51°14.469 2°54.073 7.6 281 11.9 99690 46
2012-04-26 08:48 51°14.326 2°53.832 1.2 282 11.9 99680 47
2012-04-26 08:49 51°14.186 2°53.588 5.9 283 11.8 99700 46
2012-04-26 08:50 51°14.059 2°53.321 1.2 281 11.8 99710 46
2012-04-26 08:51 51°13.948 2°53.034 7.9 281 11.7 99760 46
2012-04-26 08:52 51°13.841 2°52.742 2.2 282 11.7 99750 47
2012-04-26 08:53 51°13.726 2°52.457 8.2 281 11.7 99740 47
2012-04-26 08:54 51°13.611 2°52.172 1.2 282 11.7 99750 47
2012-04-26 08:55 51°13.497 2°51.889 4.2 282 11.6 99740 47
2012-04-26 08:56 51°13.383 2°51.608 2.8 282 11.7 99740 47
2012-04-26 08:57 51°13.28 2°51.317 8.5 286 11.7 99760 47
2012-04-26 08:58 51°13.19 2°51.012 6.4 284 11.7 99740 46
2012-04-26 08:59 51°13.087 2°50.717 7.6 282 11.6 99760 47
2012-04-26 09:00 51°12.984 2°50.422 8.5 282 11.6 99760 47
2012-04-26 09:01 51°12.867 2°50.147 1.2 282 11.6 99770 47
2012-04-26 09:02 51°12.773 2°49.85 1 282 11.6 99760 47
2012-04-26 09:03 51°12.708 2°49.525 8.8 282 11.6 99770 48
2012-04-26 09:04 51°12.619 2°49.215 1.1 282 11.6 99770 47
2012-04-26 09:05 51°12.539 2°48.898 0.6 282 11.6 99770 47
2012-04-26 09:06 51°12.455 2°48.584 2.6 281 11.6 99770 46
2012-04-26 09:07 51°12.368 2°48.276 0.6 282 11.6 99770 47
2012-04-26 09:08 51°12.264 2°47.981 0.7 281 11.5 99760 47
2012-04-26 09:09 51°12.172 2°47.676 3.3 282 11.5 99760 48
2012-04-26 09:10 51°12.081 2°47.37 4.2 281 11.5 99770 48
2012-04-26 09:11 51°12.01 2°47.049 9.1 285 11.5 99760 48
2012-04-26 09:12 51°11.925 2°46.739 2.3 282 11.6 99770 47
2012-04-26 09:13 51°11.838 2°46.427 3.6 283 11.6 99770 47
2012-04-26 09:14 51°11.755 2°46.112 4.4 282 11.5 99770 46
2012-04-26 09:15 51°11.665 2°45.805 1.1 282 11.5 99770 47
2012-04-26 09:16 51°11.587 2°45.498 2.6 280 11.5 99770 47
2012-04-26 09:17 51°11.56 2°45.317 1.1 285 11.5 99780 47
2012-04-26 09:18 51°11.571 2°45.238 8.5 80 11.5 99820 48
2012-04-26 09:19 51°11.575 2°45.217 10.2 79 11.5 99810 47
2012-04-26 09:20 51°11.58 2°45.199 9.4 78 11.5 99810 47
2012-04-26 09:21 51°11.587 2°45.18 7.9 85 11.5 99830 47
2012-04-26 09:22 51°11.597 2°45.135 9.1 282 11.5 99820 47
2012-04-26 09:23 51°11.577 2°45.045 7.8 281 11.5 99810 48
2012-04-26 09:24 51°11.522 2°45.013 9 284 11.6 99810 48
2012-04-26 09:25 51°11.49 2°45.016 14.1 349 11.5 99810 47
2012-04-26 09:26 51°11.475 2°45.016 10.2 352 11.5 99810 48
2012-04-26 09:27 51°11.466 2°45.013 9.8 355 11.5 99810 48
2012-04-26 09:28 51°11.391 2°45.026 9.8 280 11.5 99790 48
2012-04-26 09:29 51°11.29 2°45.004 11 279 11.5 99780 48
2012-04-26 09:30 51°11.221 2°44.979 9.1 283 11.6 99790 46
2012-04-26 09:31 51°11.166 2°44.947 9.8 279 11.7 99810 47
2012-04-26 09:32 51°11.115 2°44.911 9.3 282 11.8 99810 47
2012-04-26 09:33 51°11.067 2°44.871 10.1 280 11.8 99810 47
2012-04-26 09:34 51°11.019 2°44.836 10.1 280 11.8 99810 47
2012-04-26 09:35 51°10.973 2°44.801 11.3 280 11.8 99810 46
2012-04-26 09:36 51°10.928 2°44.775 5.1 282 11.8 99810 47
2012-04-26 09:37 51°10.883 2°44.75 11.4 282 11.8 99800 46
2012-04-26 09:38 51°10.835 2°44.728 10.8 279 11.8 99800 45
2012-04-26 09:39 51°10.788 2°44.716 16.9 286 11.7 99770 47
2012-04-26 09:40 51°10.744 2°44.715 12.8 286 11.6 99780 47
2012-04-26 09:41 51°10.702 2°44.722 10 284 11.5 99800 47
2012-04-26 09:42 51°10.662 2°44.734 10.7 347 11.4 99810 49
2012-04-26 09:43 51°10.617 2°44.756 12.1 278 11.2 99820 48
2012-04-26 09:44 51°10.575 2°44.786 14.2 352 11.2 99810 49
2012-04-26 09:45 51°10.531 2°44.807 8.5 281 11.1 99810 49
2012-04-26 09:46 51°10.485 2°44.804 9.3 284 11.1 99820 48
2012-04-26 09:47 51°10.44 2°44.768 5.7 279 11.2 99820 49
2012-04-26 09:48 51°10.411 2°44.696 11.9 281 11.3 99820 48
2012-04-26 09:49 51°10.393 2°44.61 0.7 282 11.5 99810 48
2012-04-26 09:50 51°10.389 2°44.549 4.3 279 11.6 99790 48
2012-04-26 09:51 51°10.389 2°44.508 1.4 284 11.8 99820 49
2012-04-26 09:52 51°10.393 2°44.478 4.8 280 11.9 99820 49
2012-04-26 09:53 51°10.401 2°44.458 7.2 280 12 99810 47
2012-04-26 09:54 51°10.413 2°44.44 2.6 282 12 99810 45
2012-04-26 09:55 51°10.461 2°44.309 7.4 282 12 99800 46
2012-04-26 09:56 51°10.51 2°44.211 5 279 12 99820 46
2012-04-26 09:57 51°10.529 2°44.146 8.4 279 12.1 99820 46
2012-04-26 09:58 51°10.539 2°44.097 11.8 286 12.1 99810 46
2012-04-26 09:59 51°10.546 2°44.058 5.2 286 12.2 99830 46
2012-04-26 10:00 51°10.558 2°43.929 3.3 281 12.3 99820 46
2012-04-26 10:01 51°10.592 2°43.655 0.3 282 12.2 99790 45
2012-04-26 10:02 51°10.605 2°43.341 0.9 282 12.2 99810 44
2012-04-26 10:03 51°10.572 2°43.025 1.6 282 12.2 99770 45
2012-04-26 10:04 51°10.542 2°42.705 3.3 282 12.1 99780 45
2012-04-26 10:05 51°10.512 2°42.385 1.2 282 12.1 99770 44
2012-04-26 10:06 51°10.488 2°42.062 2 283 12.2 99790 44
2012-04-26 10:07 51°10.482 2°41.732 5.3 282 12.3 99800 44
2012-04-26 10:08 51°10.461 2°41.405 4.1 282 12.3 99780 44
2012-04-26 10:09 51°10.435 2°41.084 0.5 282 12.2 99780 45
2012-04-26 10:10 51°10.415 2°40.749 0.5 282 12.2 99780 44
2012-04-26 10:11 51°10.401 2°40.44 1.1 282 12.2 99770 45
2012-04-26 10:12 51°10.386 2°40.199 1.1 282 12.3 99800 45
2012-04-26 10:13 51°10.371 2°40.051 1 282 12.3 99810 45
2012-04-26 10:14 51°10.365 2°39.945 8.9 283 12.4 99820 44
2012-04-26 10:15 51°10.361 2°39.858 9 280 12.4 99840 45
2012-04-26 10:16 51°10.363 2°39.781 0.2 283 12.4 99830 45
2012-04-26 10:17 51°10.365 2°39.708 0.4 282 12.4 99830 44
2012-04-26 10:18 51°10.37 2°39.638 1.9 282 12.3 99830 44
2012-04-26 10:19 51°10.372 2°39.57 3.9 285 12.4 99830 44
2012-04-26 10:20 51°10.373 2°39.504 8.4 282 12.4 99840 45
2012-04-26 10:21 51°10.373 2°39.437 2.2 280 12.4 99840 45
2012-04-26 10:22 51°10.375 2°39.372 2.6 282 12.3 99830 45
2012-04-26 10:23 51°10.379 2°39.309 5.4 288 12.4 99820 45
2012-04-26 10:24 51°10.379 2°39.245 8.2 282 12.4 99840 44
2012-04-26 10:25 51°10.377 2°39.182 11.3 285 12.4 99840 46
2012-04-26 10:26 51°10.374 2°39.118 2.8 281 12.4 99840 45
2012-04-26 10:27 51°10.373 2°39.054 10.9 282 12.4 99830 45
2012-04-26 10:28 51°10.373 2°38.991 3.3 281 12.3 99830 45
2012-04-26 10:29 51°10.375 2°38.928 11.4 282 12.3 99840 45
2012-04-26 10:30 51°10.376 2°38.867 3 282 12.4 99840 45
2012-04-26 10:31 51°10.377 2°38.803 0.6 282 12.3 99840 45
2012-04-26 10:32 51°10.379 2°38.741 11.8 279 12.3 99840 44
2012-04-26 10:33 51°10.381 2°38.681 9.4 281 12.4 99840 45
2012-04-26 10:34 51°10.381 2°38.621 9.6 284 12.4 99850 44
2012-04-26 10:35 51°10.381 2°38.558 9.1 285 12.3 99850 45
2012-04-26 10:36 51°10.379 2°38.492 4.4 282 12.3 99850 44
2012-04-26 10:37 51°10.375 2°38.427 8.6 281 12.3 99850 46
2012-04-26 10:38 51°10.37 2°38.36 8 281 12.3 99850 45
2012-04-26 10:39 51°10.367 2°38.291 5.9 282 12.3 99850 46
2012-04-26 10:40 51°10.364 2°38.223 8.3 286 12.2 99860 45
2012-04-26 10:41 51°10.362 2°38.156 10.1 286 12.2 99850 45
2012-04-26 10:42 51°10.359 2°38.091 11.4 280 12.1 99850 43
2012-04-26 10:43 51°10.358 2°38.026 8.2 278 12.1 99870 44
2012-04-26 10:44 51°10.356 2°37.96 7.1 279 12.1 99880 46
2012-04-26 10:45 51°10.353 2°37.891 12.2 283 12.1 99880 46
2012-04-26 10:46 51°10.352 2°37.825 8.8 281 12 99880 47
2012-04-26 10:47 51°10.348 2°37.757 14 281 12 99880 47
2012-04-26 10:48 51°10.348 2°37.685 3.9 279 11.9 99870 46
2012-04-26 10:49 51°10.341 2°37.591 4.5 281 11.8 99870 46
2012-04-26 10:50 51°10.319 2°37.506 12.3 279 11.6 99870 46
2012-04-26 10:51 51°10.294 2°37.428 15 286 11.6 99870 47
2012-04-26 10:52 51°10.27 2°37.341 6.2 282 11.6 99880 47
2012-04-26 10:53 51°10.246 2°37.249 13.5 283 11.6 99860 47
2012-04-26 10:54 51°10.219 2°37.157 9.7 280 11.6 99880 47
2012-04-26 10:55 51°10.192 2°37.059 10.1 281 11.6 99880 47
2012-04-26 10:56 51°10.169 2°36.957 11.7 282 11.5 99880 47
2012-04-26 10:57 51°10.147 2°36.854 10.8 282 11.6 99890 48
2012-04-26 10:58 51°10.125 2°36.754 8.4 283 11.6 99880 47
2012-04-26 10:59 51°10.1 2°36.656 9.5 283 11.6 99890 48
2012-04-26 11:00 51°10.07 2°36.562 7.6 285 11.7 99900 47
2012-04-26 11:01 51°10.04 2°36.464 7.5 281 11.8 99890 48
2012-04-26 11:02 51°10.016 2°36.363 7.4 285 11.9 99890 46
2012-04-26 11:03 51°9.995 2°36.258 9.2 285 11.9 99890 47
2012-04-26 11:04 51°9.97 2°36.159 8.8 283 12 99900 46
2012-04-26 11:05 51°9.942 2°36.06 9.7 281 12.1 99890 45
2012-04-26 11:06 51°9.914 2°35.965 8.2 279 12.1 99890 44
2012-04-26 11:07 51°9.886 2°35.864 10.1 281 12.2 99890 46
2012-04-26 11:08 51°9.862 2°35.76 11.1 278 12.2 99890 46
2012-04-26 11:09 51°9.843 2°35.656 10 282 12.1 99870 45
2012-04-26 11:10 51°9.823 2°35.557 12 284 12.2 99880 45
2012-04-26 11:11 51°9.801 2°35.463 11.6 285 12.3 99870 44
2012-04-26 11:12 51°9.779 2°35.372 11.2 279 12.4 99890 44
2012-04-26 11:13 51°9.754 2°35.283 6 281 12.4 99890 43
2012-04-26 11:14 51°9.732 2°35.189 9.2 280 12.4 99890 42
2012-04-26 11:15 51°9.715 2°35.099 11.7 284 12.4 99890 43
2012-04-26 11:16 51°9.707 2°35.033 10.5 279 12.4 99890 43
2012-04-26 11:17 51°9.702 2°34.982 11.4 282 12.4 99900 43
2012-04-26 11:18 51°9.699 2°34.937 10.9 283 12.5 99890 43
2012-04-26 11:19 51°9.699 2°34.897 5.3 280 12.6 99890 42
2012-04-26 11:20 51°9.703 2°34.865 10.8 282 12.6 99890 43
2012-04-26 11:21 51°9.711 2°34.844 11.4 284 12.6 99900 43
2012-04-26 11:22 51°9.719 2°34.836 11.6 279 12.6 99910 41
2012-04-26 11:23 51°9.726 2°34.835 7 281 12.5 99920 43
2012-04-26 11:24 51°9.732 2°34.837 6.5 281 12.5 99930 44
2012-04-26 11:25 51°9.734 2°34.84 6.7 282 12.4 99930 43
2012-04-26 11:26 51°9.737 2°34.849 3 281 12.2 99930 45
2012-04-26 11:27 51°9.743 2°34.862 10.8 282 12.3 99900 42
2012-04-26 11:28 51°9.747 2°34.872 10 282 12.4 99920 41
2012-04-26 11:29 51°9.75 2°34.884 3.6 282 12.4 99930 41
2012-04-26 11:30 51°9.753 2°34.895 7.6 281 12.4 99920 41
2012-04-26 11:31 51°9.755 2°34.909 5.3 279 12.5 99920 42
2012-04-26 11:32 51°9.756 2°34.921 8.5 276 12.4 99930 41
2012-04-26 11:33 51°9.759 2°34.934 6.9 280 12.3 99930 42
2012-04-26 11:34 51°9.761 2°34.948 4.3 288 12.3 99920 42
2012-04-26 11:35 51°9.764 2°34.963 9.4 285 12.4 99930 42
2012-04-26 11:36 51°9.768 2°34.978 2.7 282 12.4 99920 42
2012-04-26 11:37 51°9.771 2°34.992 7.9 283 12.5 99920 41
2012-04-26 11:38 51°9.775 2°35.008 7.2 281 12.5 99930 40
2012-04-26 11:39 51°9.779 2°35.025 7.6 307 12.6 99920 41
2012-04-26 11:40 51°9.782 2°35.042 8 278 12.6 99930 41
2012-04-26 11:41 51°9.785 2°35.057 8.2 287 12.6 99930 42
2012-04-26 11:42 51°9.789 2°35.073 7.5 285 12.6 99940 40
2012-04-26 11:43 51°9.792 2°35.088 10.1 284 12.5 99930 41
2012-04-26 11:44 51°9.797 2°35.104 6.9 281 12.6 99930 41
2012-04-26 11:45 51°9.801 2°35.12 8.4 284 12.6 99930 41
2012-04-26 11:46 51°9.805 2°35.136 3.3 284 12.6 99940 39
2012-04-26 11:47 51°9.808 2°35.153 7 279 12.7 99940 42
2012-04-26 11:48 51°9.811 2°35.169 6 283 12.6 99940 41
2012-04-26 11:49 51°9.814 2°35.186 5.6 287 12.6 99940 41
2012-04-26 11:50 51°9.818 2°35.202 9.8 282 12.6 99940 42
2012-04-26 11:51 51°9.823 2°35.22 3.1 281 12.6 99930 40
2012-04-26 11:52 51°9.828 2°35.24 6.6 284 12.7 99930 40
2012-04-26 11:53 51°9.833 2°35.261 5.3 282 12.8 99930 40
2012-04-26 11:54 51°9.837 2°35.281 7 280 12.8 99930 38
2012-04-26 11:55 51°9.843 2°35.304 9.1 286 12.8 99940 39
2012-04-26 11:56 51°9.847 2°35.325 5.9 281 12.9 99940 39
2012-04-26 11:57 51°9.852 2°35.348 8 284 12.8 99940 40
2012-04-26 11:58 51°9.857 2°35.37 9.9 275 12.8 99940 39
2012-04-26 11:59 51°9.862 2°35.391 8.9 281 12.8 99930 40
2012-04-26 12:00 51°9.867 2°35.413 5.7 282 12.8 99940 40
2012-04-26 12:01 51°9.872 2°35.433 6.9 287 12.8 99940 40
2012-04-26 12:02 51°9.878 2°35.454 8 279 12.8 99940 39
2012-04-26 12:03 51°9.882 2°35.474 7.5 284 12.7 99950 42
2012-04-26 12:04 51°9.886 2°35.495 4.4 281 12.7 99950 40
2012-04-26 12:05 51°9.891 2°35.52 8.9 281 12.7 99940 40
2012-04-26 12:06 51°9.897 2°35.549 6.1 279 12.8 99940 38
2012-04-26 12:07 51°9.901 2°35.577 5.3 286 12.9 99940 38
2012-04-26 12:08 51°9.905 2°35.607 7 281 13 99940 37
2012-04-26 12:09 51°9.908 2°35.639 4.1 280 13 99930 38
2012-04-26 12:10 51°9.91 2°35.672 6.9 282 13.1 99940 36
2012-04-26 12:11 51°9.912 2°35.702 5.8 281 13.1 99950 37
2012-04-26 12:12 51°9.945 2°35.73 8.9 75 13 99960 38
2012-04-26 12:13 51°9.972 2°35.818 8.7 31 13 99980 39
2012-04-26 12:14 51°9.937 2°35.908 10.5 7 13 99970 39
2012-04-26 12:15 51°9.854 2°36.021 11.4 5 12.9 99970 39
2012-04-26 12:16 51°9.786 2°36.081 10.4 358 12.8 99970 39
2012-04-26 12:17 51°9.736 2°36.124 8.1 4 12.7 99970 40
2012-04-26 12:18 51°9.688 2°36.158 8.5 359 12.6 99960 39
2012-04-26 12:19 51°9.635 2°36.182 9.1 353 12.6 99950 40
2012-04-26 12:20 51°9.58 2°36.189 8.4 284 12.6 99960 40
2012-04-26 12:21 51°9.529 2°36.171 11.5 284 12.7 99960 40
2012-04-26 12:22 51°9.487 2°36.128 10.4 283 12.8 99970 39
2012-04-26 12:23 51°9.454 2°36.07 9.3 284 12.9 99960 40
2012-04-26 12:24 51°9.419 2°36.01 9.7 286 13 99970 40
2012-04-26 12:25 51°9.389 2°35.944 10.3 283 13 99960 39
2012-04-26 12:26 51°9.357 2°35.877 9.9 282 13.2 99960 38
2012-04-26 12:27 51°9.321 2°35.818 8.8 281 13.2 99970 39
2012-04-26 12:28 51°9.286 2°35.761 9.6 280 13.3 99980 41
2012-04-26 12:29 51°9.253 2°35.7 7.4 280 13.3 99970 41
2012-04-26 12:30 51°9.222 2°35.636 8.3 280 13.2 99970 40
2012-04-26 12:31 51°9.189 2°35.569 8.3 280 13.2 99970 41
2012-04-26 12:32 51°9.154 2°35.511 9.3 285 13.3 99980 40
2012-04-26 12:33 51°9.113 2°35.458 8.7 283 13.2 99980 40
2012-04-26 12:34 51°9.061 2°35.441 10.4 281 13.1 99980 39
2012-04-26 12:35 51°9.003 2°35.46 6.8 278 13.1 99960 41
2012-04-26 12:36 51°8.949 2°35.46 12 278 13 99960 41
2012-04-26 12:37 51°8.911 2°35.454 9.6 277 13.1 99960 41
2012-04-26 12:38 51°8.883 2°35.439 8.8 280 13.3 99960 39
2012-04-26 12:39 51°8.86 2°35.418 9.6 284 13.4 99970 40
2012-04-26 12:40 51°8.847 2°35.388 10 280 13.3 99980 41
2012-04-26 12:41 51°8.865 2°35.331 9.5 284 13.3 99960 40
2012-04-26 12:42 51°8.892 2°35.314 9.6 285 13.3 99990 38
2012-04-26 12:43 51°8.912 2°35.324 7.7 278 13.2 99990 40
2012-04-26 12:44 51°8.929 2°35.345 7.4 279 13.2 100000 41
2012-04-26 12:45 51°8.981 2°35.313 8.6 82 13.2 99990 41
2012-04-26 12:46 51°9.055 2°35.338 7 73 13.2 100010 40
2012-04-26 12:47 51°9.106 2°35.37 6.9 79 13.1 100020 40
2012-04-26 12:48 51°9.143 2°35.396 6.2 76 13 100010 40
2012-04-26 12:49 51°9.17 2°35.416 5.6 279 12.9 100010 40
2012-04-26 12:50 51°9.191 2°35.443 5.1 280 12.8 100010 42
2012-04-26 12:51 51°9.225 2°35.451 5.1 282 12.8 100020 41
2012-04-26 12:52 51°9.3 2°35.448 4.2 285 12.9 100020 41
2012-04-26 12:53 51°9.445 2°35.418 1.9 284 12.9 100030 41
2012-04-26 12:54 51°9.645 2°35.45 3.7 280 12.9 100030 40
2012-04-26 12:55 51°9.85 2°35.484 3.5 278 12.9 100020 41
2012-04-26 12:56 51°10.054 2°35.514 5.3 279 12.9 100020 40
2012-04-26 12:57 51°10.257 2°35.533 6.5 279 13 100020 39
2012-04-26 12:58 51°10.458 2°35.565 5 85 13.2 100020 39
2012-04-26 12:59 51°10.651 2°35.69 4.5 76 13.3 100010 39
2012-04-26 13:00 51°10.842 2°35.823 4.1 74 13.3 100030 39
2012-04-26 13:01 51°11.033 2°35.963 3.1 83 13.3 100020 39
2012-04-26 13:02 51°11.222 2°36.108 3.1 79 13.2 100030 40
2012-04-26 13:03 51°11.412 2°36.248 3 73 13.1 100030 40
2012-04-26 13:04 51°11.596 2°36.407 3.4 77 13.1 100030 41
2012-04-26 13:05 51°11.772 2°36.591 2.6 81 13.1 100020 40
2012-04-26 13:06 51°11.943 2°36.789 2.1 281 13.1 100030 40
2012-04-26 13:07 51°12.121 2°36.961 2.8 77 13.1 100030 40
2012-04-26 13:08 51°12.296 2°37.149 0.5 18 13 100030 41
2012-04-26 13:09 51°12.449 2°37.385 2.1 83 13 100030 40
2012-04-26 13:10 51°12.607 2°37.61 2.1 82 13 100040 41
2012-04-26 13:11 51°12.768 2°37.833 1.4 76 13.1 100030 40
2012-04-26 13:12 51°12.929 2°38.052 1.9 73 13.2 100040 41
2012-04-26 13:13 51°13.078 2°38.296 0.2 38 13.2 100030 40
2012-04-26 13:14 51°13.222 2°38.547 0.1 24 13.2 100030 40
2012-04-26 13:15 51°13.366 2°38.795 0.1 292 13.3 100030 41
2012-04-26 13:16 51°13.511 2°39.045 0.1 283 13.4 100040 41
2012-04-26 13:17 51°13.655 2°39.291 0.1 20 13.4 100030 41
2012-04-26 13:18 51°13.759 2°39.586 2.4 17 13.3 100040 41
2012-04-26 13:19 51°13.832 2°39.911 4.2 6 13.1 100040 41
2012-04-26 13:20 51°13.906 2°40.234 6.2 12 12.8 100040 42
2012-04-26 13:21 51°13.956 2°40.573 5.2 2 12.7 100050 43
2012-04-26 13:22 51°14.012 2°40.914 8.3 13 12.5 100040 44
2012-04-26 13:23 51°14.07 2°41.253 9.2 18 12.4 100040 45
2012-04-26 13:24 51°14.13 2°41.591 10.2 18 12.3 100040 45
2012-04-26 13:25 51°14.196 2°41.928 9.3 14 12.2 100040 45
2012-04-26 13:26 51°14.26 2°42.266 7.8 16 12.2 100050 46
2012-04-26 13:27 51°14.333 2°42.598 8.3 19 12.1 100060 45
2012-04-26 13:28 51°14.412 2°42.924 7 28 12.1 100060 46
2012-04-26 13:29 51°14.568 2°43.164 5.4 76 12.1 100060 45
2012-04-26 13:30 51°14.744 2°43.37 3.6 42 12.1 100060 46
2012-04-26 13:31 51°14.89 2°43.629 5.5 21 12.2 100070 46
2012-04-26 13:32 51°14.939 2°43.967 8.9 8 12.1 100060 46
2012-04-26 13:33 51°14.936 2°44.315 7.5 8 12.1 100060 46
2012-04-26 13:34 51°14.915 2°44.662 8.7 6 12 100060 46
2012-04-26 13:35 51°14.881 2°45.009 7.5 5 11.9 100050 46
2012-04-26 13:36 51°14.829 2°45.343 10.5 4 11.9 100040 45
2012-04-26 13:37 51°14.81 2°45.69 8.8 8 11.9 100050 45
2012-04-26 13:38 51°14.8 2°46.041 9.3 7 11.9 100050 45
2012-04-26 13:39 51°14.777 2°46.39 10.8 10 11.8 100060 44
2012-04-26 13:40 51°14.765 2°46.736 9.2 7 11.8 100050 44
2012-04-26 13:41 51°14.754 2°47.085 7.8 8 11.9 100060 43
2012-04-26 13:42 51°14.745 2°47.436 11.4 13 11.9 100070 43
2012-04-26 13:43 51°14.744 2°47.79 9.1 7 11.9 100070 44
2012-04-26 13:44 51°14.738 2°48.142 11.8 12 11.9 100060 43
2012-04-26 13:45 51°14.762 2°48.493 8.8 14 11.9 100070 43
2012-04-26 13:46 51°14.789 2°48.84 9.8 17 11.9 100080 44
2012-04-26 13:47 51°14.808 2°49.19 9.5 9 11.9 100070 43
2012-04-26 13:48 51°14.826 2°49.539 10.4 11 12 100070 43
2012-04-26 13:49 51°14.843 2°49.889 9.9 15 12.1 100070 43
2012-04-26 13:50 51°14.865 2°50.239 8.4 8 12.1 100070 43
2012-04-26 13:51 51°14.886 2°50.59 8.2 12 12.1 100070 43
2012-04-26 13:52 51°14.906 2°50.94 10.2 9 12.1 100070 43
2012-04-26 13:53 51°14.922 2°51.292 8.9 6 12.1 100070 42
2012-04-26 13:54 51°14.94 2°51.64 8.3 14 12.1 100080 43
2012-04-26 13:55 51°14.958 2°51.987 9.8 11 12.1 100080 43
2012-04-26 13:56 51°14.98 2°52.335 8.9 12 12.1 100080 44
2012-04-26 13:57 51°15.005 2°52.683 10 11 12 100080 43
2012-04-26 13:58 51°15.023 2°53.032 12.8 11 12 100070 42
2012-04-26 13:59 51°15.036 2°53.38 9.3 14 12.1 100080 43
2012-04-26 14:00 51°15.065 2°53.733 9.4 14 12.2 100080 42
2012-04-26 14:01 51°15.086 2°54.081 7.6 3 12.2 100080 43
2012-04-26 14:02 51°15.019 2°54.396 10.4 350 12.3 100070 42
2012-04-26 14:03 51°14.888 2°54.628 11.2 277 12.4 100070 42
2012-04-26 14:04 51°14.744 2°54.834 12.7 351 12.6 100070 41
2012-04-26 14:05 51°14.594 2°55.027 12.6 281 12.7 100080 42
2012-04-26 14:06 51°14.421 2°55.148 8.2 350 12.9 100090 41
2012-04-26 14:07 51°14.301 2°55.251 5.5 278 13 100100 42
2012-04-26 14:08 51°14.187 2°55.35 11.7 279 13.2 100110 41
2012-04-26 14:09 51°14.066 2°55.467 7.6 283 13.2 100100 40
2012-04-26 14:10 51°13.952 2°55.554 9.2 284 13.2 100110 40
2012-04-26 14:11 51°13.852 2°55.626 7.7 282 13.3 100090 41
2012-04-26 14:12 51°13.763 2°55.71 7.1 359 13.3 100110 41
2012-04-26 14:13 51°13.703 2°55.816 6.1 357 13.2 100110 42
2012-04-26 14:14 51°13.659 2°55.914 7.2 359 13.2 100120 40
2012-04-26 14:15 51°13.641 2°56 3.3 357 13.2 100120 40
2012-04-26 14:16 51°13.636 2°56.019 4.2 8 13.2 100110 41
2012-04-26 14:17 51°13.636 2°56.019 5 358 13.2 100110 40
2012-04-26 14:18 51°13.638 2°56.017 4.2 9 13.3 100120 41